Time;durP1;ratioP1;P1;durP2;ratioP2;P2;SDS_P1;SDS_P2;PMS_P1;PMS_P2;Temp;Humidity;BMP_temperature;BMP_pressure;BME280_temperature;BME280_humidity;BME280_pressure;Samples;Min_cycle;Max_cycle;Signal;HPM_P1;HPM_P2
2024/02/07 00:00:57;;;;;;;13.93;6.50;;;10.30;99.90;;;;;;5051994;28;20033;-69
2024/02/07 00:03:22;;;;;;;14.70;6.57;;;10.30;99.90;;;;;;5051996;28;20379;-69
2024/02/07 00:05:48;;;;;;;15.32;6.30;;;10.30;99.90;;;;;;5051828;28;20025;-69
2024/02/07 00:08:14;;;;;;;16.88;7.70;;;10.20;99.90;;;;;;5051957;28;20029;-70
2024/02/07 00:10:39;;;;;;;13.68;6.53;;;10.20;99.90;;;;;;5052002;28;20078;-70
2024/02/07 00:13:05;;;;;;;20.35;7.10;;;10.20;99.90;;;;;;5052083;28;20028;-70
2024/02/07 00:15:30;;;;;;;16.02;5.85;;;10.20;99.90;;;;;;5051926;28;20025;-70
2024/02/07 00:17:58;;;;;;;15.68;6.50;;;10.20;99.90;;;;;;5050847;28;20024;-70
2024/02/07 00:20:23;;;;;;;13.75;6.10;;;10.20;99.90;;;;;;5051974;28;20025;-69
2024/02/07 00:22:49;;;;;;;12.13;6.07;;;10.20;99.90;;;;;;5051818;28;20025;-69
2024/02/07 00:25:14;;;;;;;16.35;6.47;;;10.30;99.90;;;;;;5052119;28;20029;-70
2024/02/07 00:27:40;;;;;;;11.65;6.18;;;10.20;99.90;;;;;;5051766;28;20033;-70
2024/02/07 00:30:06;;;;;;;18.08;5.88;;;10.20;99.90;;;;;;5053805;28;20437;-69
2024/02/07 00:32:32;;;;;;;14.48;6.68;;;10.20;99.90;;;;;;5055150;28;20402;-69
2024/02/07 00:34:57;;;;;;;16.55;6.65;;;10.30;99.90;;;;;;5055815;28;20050;-69
2024/02/07 00:37:23;;;;;;;14.32;6.95;;;10.30;99.90;;;;;;5054785;28;20091;-69
2024/02/07 00:39:48;;;;;;;15.15;7.22;;;10.20;99.90;;;;;;5055246;28;20025;-69
2024/02/07 00:42:14;;;;;;;22.00;7.32;;;10.20;99.90;;;;;;5055730;28;20029;-69
2024/02/07 00:44:39;;;;;;;18.60;7.75;;;10.20;99.90;;;;;;5055623;28;20081;-70
2024/02/07 00:47:05;;;;;;;15.60;7.20;;;10.20;99.90;;;;;;5055749;28;20051;-69
2024/02/07 00:49:31;;;;;;;20.20;7.68;;;10.20;99.90;;;;;;5055699;28;20451;-70
2024/02/07 00:51:57;;;;;;;17.02;8.32;;;10.20;99.90;;;;;;5055983;28;20021;-70
2024/02/07 00:54:24;;;;;;;20.02;7.32;;;10.20;99.90;;;;;;5055684;28;20024;-70
2024/02/07 00:56:50;;;;;;;16.60;7.72;;;10.10;99.90;;;;;;5055574;28;20021;-70
2024/02/07 00:59:15;;;;;;;19.08;7.55;;;10.10;99.90;;;;;;5070842;28;20031;-69
2024/02/07 01:01:41;;;;;;;14.25;7.47;;;10.10;99.90;;;;;;5055355;28;20033;-69
2024/02/07 01:04:07;;;;;;;12.15;7.03;;;10.10;99.90;;;;;;5055382;28;20151;-70
2024/02/07 01:06:32;;;;;;;15.35;7.45;;;10.00;99.90;;;;;;5055347;28;20028;-70
2024/02/07 01:08:58;;;;;;;14.23;7.57;;;10.10;99.90;;;;;;5055183;28;20040;-70
2024/02/07 01:11:23;;;;;;;19.08;7.32;;;10.10;99.90;;;;;;5055351;28;20494;-69
2024/02/07 01:13:49;;;;;;;16.73;7.88;;;10.10;99.90;;;;;;5055281;28;20029;-69
2024/02/07 01:16:15;;;;;;;16.75;7.65;;;10.20;99.90;;;;;;5055117;28;20052;-70
2024/02/07 01:18:41;;;;;;;16.17;6.63;;;10.20;99.90;;;;;;5055090;28;20047;-70
2024/02/07 01:21:08;;;;;;;11.32;5.75;;;10.20;99.90;;;;;;5055396;28;20100;-70
2024/02/07 01:23:34;;;;;;;11.18;6.78;;;10.20;99.90;;;;;;5055385;28;20036;-70
2024/02/07 01:26:01;;;;;;;14.10;6.45;;;10.20;99.90;;;;;;5055365;28;20025;-70
2024/02/07 01:28:27;;;;;;;19.70;6.90;;;10.30;99.90;;;;;;5055285;28;20028;-70
2024/02/07 01:30:53;;;;;;;16.25;6.68;;;10.30;99.90;;;;;;5055091;28;20382;-69
2024/02/07 01:33:19;;;;;;;14.93;6.70;;;10.40;99.90;;;;;;5054963;28;20067;-69
2024/02/07 01:35:46;;;;;;;5.20;2.33;;;10.40;99.90;;;;;;5054740;28;20025;-69
2024/02/07 01:38:17;;;;;;;3.90;1.35;;;9.80;99.90;;;;;;5055025;28;20072;-69
2024/02/07 01:40:45;;;;;;;4.60;1.25;;;8.70;99.90;;;;;;5053930;28;20036;-69
2024/02/07 01:43:11;;;;;;;1.83;1.00;;;8.00;99.90;;;;;;5070200;28;20040;-70
2024/02/07 01:45:37;;;;;;;2.35;0.93;;;7.60;99.90;;;;;;5070000;28;20136;-69
2024/02/07 01:48:03;;;;;;;1.17;0.68;;;7.50;99.90;;;;;;5054670;28;20056;-69
2024/02/07 01:50:30;;;;;;;3.00;0.73;;;7.30;99.90;;;;;;5070113;28;20044;-69
2024/02/07 01:52:58;;;;;;;2.63;1.08;;;7.20;99.90;;;;;;5054824;28;20029;-69
2024/02/07 01:55:25;;;;;;;3.53;0.60;;;7.10;99.90;;;;;;5054471;28;20479;-68
2024/02/07 01:57:52;;;;;;;2.75;0.63;;;7.00;99.90;;;;;;5054671;28;20021;-69
2024/02/07 02:00:18;;;;;;;1.98;0.60;;;6.90;99.90;;;;;;5070024;28;20027;-69
2024/02/07 02:02:46;;;;;;;3.30;0.70;;;6.80;99.90;;;;;;5054322;28;20033;-69
2024/02/07 02:05:13;;;;;;;4.88;0.70;;;6.80;99.90;;;;;;5054366;28;20032;-69
2024/02/07 02:07:39;;;;;;;5.25;0.90;;;6.70;99.90;;;;;;5054247;28;20031;-69
2024/02/07 02:10:05;;;;;;;2.88;0.70;;;6.60;99.90;;;;;;5054496;28;20063;-69
2024/02/07 02:12:31;;;;;;;6.55;1.38;;;6.40;99.90;;;;;;5054287;28;20033;-69
2024/02/07 02:14:57;;;;;;;5.03;1.27;;;6.30;99.90;;;;;;5069677;28;20025;-69
2024/02/07 02:17:23;;;;;;;5.32;0.98;;;6.20;99.90;;;;;;5054187;28;20036;-68
2024/02/07 02:19:50;;;;;;;5.57;0.80;;;6.10;99.90;;;;;;5054222;28;20032;-69
2024/02/07 02:22:52;;;;;;;6.43;1.40;;;6.00;99.90;;;;;;5054274;28;20505;-69
2024/02/07 02:25:58;;;;;;;4.68;1.00;;;5.90;99.90;;;;;;5054080;28;20437;-69
2024/02/07 02:28:52;;;;;;;9.70;1.20;;;5.70;99.90;;;;;;5053771;28;20028;-69
2024/02/07 02:31:18;;;;;;;7.20;1.70;;;5.50;99.90;;;;;;5053884;28;20506;-69
2024/02/07 02:33:47;;;;;;;12.48;1.65;;;5.50;99.90;;;;;;5054067;28;20471;-69
2024/02/07 02:36:12;;;;;;;8.93;1.67;;;5.40;99.90;;;;;;5053998;28;20067;-69
2024/02/07 02:38:38;;;;;;;7.18;1.30;;;5.30;99.90;;;;;;5053713;28;20029;-69
2024/02/07 02:41:07;;;;;;;8.95;1.20;;;5.30;99.90;;;;;;5053935;28;20029;-69
2024/02/07 02:43:32;;;;;;;8.07;1.27;;;5.20;99.90;;;;;;5053528;28;20033;-69
2024/02/07 02:45:58;;;;;;;7.72;1.50;;;5.20;99.90;;;;;;5053890;28;20036;-69
2024/02/07 02:48:23;;;;;;;7.07;1.17;;;5.20;99.90;;;;;;5053572;28;20387;-69
2024/02/07 02:50:49;;;;;;;10.07;1.52;;;5.10;99.90;;;;;;5053773;28;20091;-69
2024/02/07 02:53:16;;;;;;;11.05;1.38;;;5.10;99.90;;;;;;5053267;28;20557;-69
2024/02/07 02:55:42;;;;;;;6.85;1.48;;;5.20;99.90;;;;;;5053476;28;20059;-69
2024/02/07 02:58:09;;;;;;;6.78;1.48;;;5.10;99.90;;;;;;5053300;28;20056;-69
2024/02/07 03:00:35;;;;;;;10.45;1.55;;;5.20;99.90;;;;;;5053265;28;20094;-69
2024/02/07 03:03:02;;;;;;;14.88;1.42;;;5.20;99.90;;;;;;5053550;28;20123;-69
2024/02/07 03:08:29;;;;;;;7.47;1.50;;;5.20;99.90;;;;;;5090818;28;20382;-69
2024/02/07 03:10:55;;;;;;;8.63;1.63;;;5.20;99.90;;;;;;5090624;28;20066;-69
2024/02/07 03:13:22;;;;;;;12.70;1.98;;;5.20;99.90;;;;;;5090967;28;20055;-69
2024/02/07 03:15:47;;;;;;;6.28;1.27;;;5.20;99.90;;;;;;5090543;28;20390;-69
2024/02/07 03:18:13;;;;;;;9.95;1.85;;;5.20;99.90;;;;;;5090543;28;20110;-69
2024/02/07 03:20:38;;;;;;;9.10;1.58;;;5.10;99.90;;;;;;5090550;28;20111;-69
2024/02/07 03:23:04;;;;;;;8.23;1.08;;;5.10;99.90;;;;;;5090483;28;20060;-69
2024/02/07 03:25:33;;;;;;;7.15;1.90;;;5.10;99.90;;;;;;5090481;28;20060;-69
2024/02/07 03:27:59;;;;;;;8.07;1.40;;;5.10;99.90;;;;;;5089206;28;20028;-69
2024/02/07 03:30:25;;;;;;;6.95;1.63;;;5.10;99.90;;;;;;5090378;28;20414;-69
2024/02/07 03:32:51;;;;;;;9.77;2.03;;;5.10;99.90;;;;;;5090393;28;20024;-69
2024/02/07 03:35:18;;;;;;;6.95;1.67;;;5.10;99.90;;;;;;5090424;28;20036;-69
2024/02/07 03:37:44;;;;;;;6.18;1.25;;;5.00;99.90;;;;;;5090136;28;20024;-69
2024/02/07 03:40:14;;;;;;;7.40;2.30;;;5.00;99.90;;;;;;5088965;28;20494;-69
2024/02/07 03:42:41;;;;;;;8.75;2.03;;;5.00;99.90;;;;;;5090126;28;20478;-69
2024/02/07 03:45:09;;;;;;;7.93;1.95;;;4.90;99.90;;;;;;5088867;28;20117;-69
2024/02/07 03:47:39;;;;;;;6.65;1.95;;;4.90;99.90;;;;;;5089877;28;20024;-69
2024/02/07 03:50:10;;;;;;;14.35;2.10;;;5.00;99.90;;;;;;5089955;28;20020;-69
2024/02/07 03:52:37;;;;;;;8.77;2.40;;;5.00;99.90;;;;;;5089889;28;20036;-69
2024/02/07 03:55:03;;;;;;;5.32;1.73;;;5.00;99.90;;;;;;5090068;28;20031;-69
2024/02/07 03:57:29;;;;;;;8.60;1.90;;;5.00;99.90;;;;;;5088688;28;20028;-68
2024/02/07 03:59:54;;;;;;;7.57;1.80;;;4.90;99.90;;;;;;5089840;28;20074;-68
2024/02/07 04:02:21;;;;;;;5.85;1.58;;;5.00;99.90;;;;;;5089544;28;20024;-69
2024/02/07 04:04:49;;;;;;;7.53;1.55;;;4.90;99.90;;;;;;5089702;28;20056;-69
2024/02/07 04:07:16;;;;;;;8.43;1.70;;;5.00;99.90;;;;;;5088028;28;20044;-69
2024/02/07 04:09:43;;;;;;;8.43;2.03;;;5.00;99.90;;;;;;5089491;28;20417;-69
2024/02/07 05:17:51;;;;;;;3.08;0.90;;;3.80;99.90;;;;;;5090704;28;20109;-68
2024/02/07 05:20:16;;;;;;;1.92;0.77;;;3.80;99.90;;;;;;5090857;28;20032;-68
2024/02/07 05:22:42;;;;;;;5.50;1.45;;;3.70;99.90;;;;;;5090671;28;20035;-68
2024/02/07 05:25:08;;;;;;;5.43;1.00;;;3.70;99.90;;;;;;5090840;28;20050;-68
2024/02/07 05:27:34;;;;;;;4.28;1.15;;;3.70;99.90;;;;;;5090424;28;20085;-68
2024/02/07 05:29:59;;;;;;;2.53;0.93;;;3.60;99.90;;;;;;5090717;28;20032;-68
2024/02/07 05:32:25;;;;;;;2.22;1.35;;;3.60;99.90;;;;;;5090524;28;20056;-68
2024/02/07 05:34:50;;;;;;;4.15;1.08;;;3.60;99.90;;;;;;5090365;28;20028;-69
2024/02/07 05:37:16;;;;;;;6.43;1.23;;;3.50;99.90;;;;;;5090263;28;20028;-68
2024/02/07 05:39:41;;;;;;;2.10;1.08;;;3.60;99.90;;;;;;5090374;28;20024;-68
2024/02/07 05:42:07;;;;;;;4.43;1.20;;;3.40;99.90;;;;;;5090508;28;20035;-68
2024/02/07 05:44:32;;;;;;;3.42;0.82;;;3.40;99.90;;;;;;5090034;28;20020;-69
2024/02/07 05:46:59;;;;;;;7.95;1.33;;;3.40;99.90;;;;;;5090010;28;20433;-68
2024/02/07 05:49:25;;;;;;;5.10;0.88;;;3.30;99.90;;;;;;5090341;28;20024;-68
2024/02/07 05:51:58;;;;;;;8.13;1.35;;;3.20;99.90;;;;;;5090020;28;20020;-68
2024/02/07 05:54:27;;;;;;;3.90;1.00;;;3.10;99.90;;;;;;5090279;28;20028;-68
2024/02/07 05:56:53;;;;;;;2.83;0.95;;;3.00;99.90;;;;;;5090156;28;20476;-68
2024/02/07 05:59:19;;;;;;;6.15;1.10;;;2.90;99.90;;;;;;5090154;28;20063;-68
2024/02/07 06:01:45;;;;;;;4.18;1.08;;;2.90;99.90;;;;;;5089898;28;20013;-68
2024/02/07 06:04:11;;;;;;;5.63;1.00;;;2.80;99.90;;;;;;5088538;28;20028;-68
2024/02/07 06:06:36;;;;;;;4.53;1.02;;;2.80;99.90;;;;;;5089817;28;20077;-68
2024/02/07 06:09:04;;;;;;;4.32;1.30;;;2.80;99.90;;;;;;5089767;28;20415;-68
2024/02/07 06:11:32;;;;;;;4.80;1.20;;;2.80;99.90;;;;;;5090073;28;20024;-68
2024/02/07 06:13:59;;;;;;;2.15;0.90;;;2.70;99.90;;;;;;5089764;28;20462;-68
2024/02/07 06:16:26;;;;;;;4.80;1.67;;;2.70;99.90;;;;;;5088531;28;20390;-68
2024/02/07 06:18:51;;;;;;;4.63;1.35;;;2.70;99.90;;;;;;5089464;28;20024;-68
2024/02/07 06:21:19;;;;;;;7.30;1.60;;;2.80;99.90;;;;;;5094698;28;20115;-68
2024/02/07 06:23:46;;;;;;;2.97;1.40;;;2.70;99.90;;;;;;5102914;28;20501;-68
2024/02/07 06:26:11;;;;;;;7.22;1.50;;;2.70;99.90;;;;;;5086851;28;20493;-65
2024/02/07 06:28:37;;;;;;;6.28;1.50;;;2.70;99.90;;;;;;5080807;28;20033;-65
2024/02/07 06:31:03;;;;;;;4.90;1.42;;;2.80;99.90;;;;;;5093418;28;20031;-65
2024/02/07 06:33:28;;;;;;;7.05;1.88;;;2.90;99.90;;;;;;5080086;28;20048;-65
2024/02/07 06:35:54;;;;;;;10.25;2.30;;;2.80;99.90;;;;;;5087617;28;20060;-65
2024/02/07 06:38:19;;;;;;;7.40;1.90;;;2.80;99.90;;;;;;5087129;28;20028;-69
2024/02/07 06:40:45;;;;;;;5.78;2.22;;;2.70;99.90;;;;;;5080482;28;20490;-69
2024/02/07 06:43:10;;;;;;;13.43;2.22;;;2.70;99.90;;;;;;5087433;28;20027;-69
2024/02/07 06:45:36;;;;;;;8.07;3.15;;;2.70;99.90;;;;;;5083567;28;20095;-69
2024/02/07 06:48:02;;;;;;;4.45;2.20;;;2.70;99.90;;;;;;5080338;28;20020;-68
2024/02/07 06:50:27;;;;;;;5.85;2.15;;;2.60;99.90;;;;;;5086295;28;20069;-69
2024/02/07 06:52:53;;;;;;;9.82;2.92;;;2.60;99.90;;;;;;5075417;28;20028;-68
2024/02/07 06:55:18;;;;;;;10.27;2.83;;;2.60;99.90;;;;;;5077641;28;20075;-68
2024/02/07 06:57:45;;;;;;;8.23;2.58;;;2.50;99.90;;;;;;5088932;28;20441;-68
2024/02/07 07:00:12;;;;;;;8.88;3.10;;;2.50;99.90;;;;;;5073608;28;20028;-68
2024/02/07 07:02:37;;;;;;;6.82;3.47;;;2.50;99.90;;;;;;5091254;28;20044;-68
2024/02/07 07:05:03;;;;;;;12.50;3.60;;;2.60;99.90;;;;;;5079344;28;20032;-68
2024/02/07 07:07:28;;;;;;;9.75;4.30;;;2.60;99.90;;;;;;5074633;28;20071;-68
2024/02/07 07:09:54;;;;;;;6.00;3.47;;;2.60;99.90;;;;;;5079554;28;20103;-69
2024/02/07 07:12:20;;;;;;;8.30;3.50;;;2.60;99.90;;;;;;5083046;28;20078;-69
2024/02/07 07:14:46;;;;;;;6.40;3.15;;;2.70;99.90;;;;;;5083596;28;20023;-69
2024/02/07 07:17:11;;;;;;;7.55;2.72;;;2.70;99.90;;;;;;5076429;28;20044;-68
2024/02/07 07:19:39;;;;;;;6.70;2.10;;;2.70;99.90;;;;;;5086995;28;20039;-69
2024/02/07 07:22:05;;;;;;;11.70;2.85;;;2.60;99.90;;;;;;5058639;28;20021;-69
2024/02/07 07:24:30;;;;;;;10.35;2.67;;;2.70;99.90;;;;;;5071154;28;20537;-69
2024/02/07 07:26:56;;;;;;;5.70;2.30;;;2.70;99.90;;;;;;5053476;28;20541;-69
2024/02/07 07:29:21;;;;;;;6.55;2.33;;;2.70;99.90;;;;;;5064579;28;20394;-70
2024/02/07 07:31:47;;;;;;;13.60;3.17;;;2.70;99.90;;;;;;5056798;28;20060;-70
2024/02/07 07:34:12;;;;;;;6.75;2.80;;;2.80;99.90;;;;;;5055103;28;20486;-69
2024/02/07 07:36:39;;;;;;;9.98;3.55;;;2.80;99.90;;;;;;5056395;28;20475;-69
2024/02/07 07:39:05;;;;;;;14.25;4.55;;;2.80;99.90;;;;;;5051844;28;20033;-70
2024/02/07 07:41:31;;;;;;;12.80;4.65;;;2.80;99.90;;;;;;5051953;28;20517;-69
2024/02/07 07:43:57;;;;;;;12.05;5.13;;;2.80;99.90;;;;;;5056879;28;20033;-69
2024/02/07 07:46:23;;;;;;;14.70;6.00;;;2.80;99.90;;;;;;5053934;28;20064;-70
2024/02/07 07:48:48;;;;;;;16.50;6.63;;;2.90;99.90;;;;;;5054458;28;20574;-69
2024/02/07 07:51:19;;;;;;;21.48;7.80;;;2.90;99.90;;;;;;5054948;28;20037;-70
2024/02/07 07:53:45;;;;;;;19.10;7.78;;;2.90;99.90;;;;;;5056088;28;20386;-70
2024/02/07 07:56:11;;;;;;;18.35;7.93;;;3.00;99.90;;;;;;5056225;28;20021;-69
2024/02/07 07:58:38;;;;;;;23.23;9.32;;;3.00;99.90;;;;;;5060820;28;20032;-70
2024/02/07 08:01:05;;;;;;;24.48;10.13;;;3.10;99.90;;;;;;5058756;28;20024;-69
2024/02/07 08:03:30;;;;;;;23.70;9.45;;;3.10;99.90;;;;;;5045096;28;20054;-70
2024/02/07 08:05:56;;;;;;;23.95;9.73;;;3.10;99.90;;;;;;5052163;28;20041;-69
2024/02/07 08:08:21;;;;;;;25.08;10.07;;;3.20;99.90;;;;;;5052438;28;20094;-68
2024/02/07 08:10:48;;;;;;;23.85;9.50;;;3.20;99.90;;;;;;5051368;28;20075;-68
2024/02/07 08:13:13;;;;;;;26.17;10.15;;;3.20;99.90;;;;;;5051704;28;20036;-70
2024/02/07 08:15:39;;;;;;;27.48;10.45;;;3.30;99.90;;;;;;5052173;28;20107;-69
2024/02/07 08:18:05;;;;;;;28.38;10.90;;;3.20;99.90;;;;;;5052759;28;20036;-68
2024/02/07 08:20:30;;;;;;;24.63;10.15;;;3.20;99.90;;;;;;5052702;28;20021;-69
2024/02/07 08:22:56;;;;;;;33.60;10.90;;;3.30;99.90;;;;;;5053067;28;20036;-69
2024/02/07 08:25:21;;;;;;;31.40;12.32;;;3.30;99.90;;;;;;5064847;28;20028;-69
2024/02/07 08:27:48;;;;;;;27.63;10.20;;;3.40;99.90;;;;;;5057130;28;20037;-69
2024/02/07 08:30:15;;;;;;;31.73;12.05;;;3.50;99.90;;;;;;5051170;28;20398;-69
2024/02/07 08:32:40;;;;;;;29.42;12.20;;;3.40;99.90;;;;;;5052433;28;20482;-68
2024/02/07 08:35:06;;;;;;;33.20;12.02;;;3.50;99.90;;;;;;5052252;28;20025;-65
2024/02/07 08:37:31;;;;;;;36.20;13.27;;;3.50;99.90;;;;;;5050376;28;20033;-68
2024/02/07 08:39:57;;;;;;;61.15;28.20;;;3.50;99.90;;;;;;5051378;28;20036;-69
2024/02/07 08:42:22;;;;;;;43.63;17.67;;;3.50;99.90;;;;;;5052680;28;20079;-68
2024/02/07 08:44:48;;;;;;;36.42;16.00;;;3.50;99.90;;;;;;5051935;28;20017;-68
2024/02/07 08:47:13;;;;;;;32.67;14.38;;;3.60;99.90;;;;;;5052306;28;20033;-68
2024/02/07 08:49:40;;;;;;;30.95;12.07;;;3.60;99.90;;;;;;5052531;28;20045;-68
2024/02/07 08:52:06;;;;;;;30.63;11.38;;;3.60;99.90;;;;;;5052945;28;20115;-69
2024/02/07 08:54:33;;;;;;;39.70;13.15;;;3.70;99.90;;;;;;5052818;28;20064;-70
2024/02/07 08:56:59;;;;;;;37.67;15.63;;;3.70;99.90;;;;;;5051375;28;20033;-68
2024/02/07 08:59:24;;;;;;;47.22;16.65;;;3.80;99.90;;;;;;5052383;28;20075;-68
2024/02/07 09:01:50;;;;;;;34.85;14.23;;;3.90;99.90;;;;;;5051462;28;20025;-69
2024/02/07 09:04:15;;;;;;;36.10;14.27;;;3.90;99.90;;;;;;5052429;28;20146;-69
2024/02/07 09:06:41;;;;;;;42.50;15.88;;;3.90;99.90;;;;;;5050765;28;20032;-69
2024/02/07 09:09:06;;;;;;;43.63;16.38;;;3.80;99.90;;;;;;5051137;28;20373;-68
2024/02/07 09:11:32;;;;;;;38.45;14.85;;;3.90;99.90;;;;;;5052189;28;20037;-68
2024/02/07 09:13:58;;;;;;;34.80;14.05;;;4.00;99.90;;;;;;5051236;28;20036;-69
2024/02/07 09:16:24;;;;;;;33.60;13.40;;;4.00;99.90;;;;;;5053217;28;20041;-69
2024/02/07 09:18:51;;;;;;;45.83;16.90;;;4.10;99.90;;;;;;5051441;28;20025;-69
2024/02/07 09:21:17;;;;;;;39.05;14.98;;;4.20;99.90;;;;;;5052821;28;20470;-69
2024/02/07 09:23:42;;;;;;;27.45;13.00;;;4.20;99.90;;;;;;5054982;28;20024;-68
2024/02/07 09:26:08;;;;;;;27.50;11.80;;;4.20;99.90;;;;;;5050053;28;20032;-68
2024/02/07 09:28:33;;;;;;;31.20;11.82;;;4.20;99.90;;;;;;5048468;28;20082;-68
2024/02/07 09:30:59;;;;;;;32.42;13.43;;;4.10;99.90;;;;;;5050870;28;20040;-68
2024/02/07 09:33:24;;;;;;;28.77;12.25;;;4.10;99.90;;;;;;5051059;28;20037;-69
2024/02/07 09:35:50;;;;;;;28.63;12.45;;;4.10;99.90;;;;;;5050114;28;20087;-68
2024/02/07 09:38:16;;;;;;;29.35;13.15;;;4.10;99.90;;;;;;5051463;28;20025;-69
2024/02/07 09:40:42;;;;;;;30.17;12.38;;;4.20;99.90;;;;;;5051086;28;20111;-70
2024/02/07 09:43:10;;;;;;;28.70;12.02;;;4.20;99.90;;;;;;5051713;28;20442;-69
2024/02/07 09:45:38;;;;;;;22.58;12.20;;;4.30;99.90;;;;;;5051313;28;20053;-68
2024/02/07 09:48:25;;;;;;;26.83;11.77;;;4.10;99.90;;;;;;5050874;28;20548;-69
2024/02/07 09:50:53;;;;;;;23.10;12.13;;;4.10;99.90;;;;;;5046760;28;20459;-68
2024/02/07 09:53:21;;;;;;;27.00;13.07;;;4.10;99.90;;;;;;5048959;28;20098;-67
2024/02/07 09:55:49;;;;;;;29.48;12.65;;;4.10;99.90;;;;;;5054105;28;20154;-69
2024/02/07 09:58:15;;;;;;;30.70;14.25;;;4.10;99.90;;;;;;5051764;28;20555;-70
2024/02/07 10:00:41;;;;;;;33.75;16.60;;;4.20;99.90;;;;;;5049007;28;20479;-67
2024/02/07 10:03:12;;;;;;;33.33;16.40;;;4.30;99.90;;;;;;5051162;28;20025;-68
2024/02/07 10:05:39;;;;;;;40.40;17.63;;;4.30;99.90;;;;;;5053131;28;20025;-67
2024/02/07 10:08:05;;;;;;;39.35;18.25;;;4.30;99.90;;;;;;5052857;28;20032;-69
2024/02/07 10:10:31;;;;;;;40.03;18.35;;;4.30;99.90;;;;;;5053657;28;20039;-68
2024/02/07 10:12:58;;;;;;;38.10;19.10;;;4.30;99.90;;;;;;5051221;28;20432;-67
2024/02/07 10:15:24;;;;;;;40.33;19.80;;;4.30;99.90;;;;;;5051822;28;20465;-68
2024/02/07 10:17:49;;;;;;;41.65;19.98;;;4.40;99.90;;;;;;5051900;28;20039;-67
2024/02/07 10:20:15;;;;;;;38.03;19.45;;;4.30;99.90;;;;;;5054002;28;20498;-68
2024/02/07 10:22:41;;;;;;;35.30;18.92;;;4.40;99.90;;;;;;5054877;28;20047;-68
2024/02/07 10:25:11;;;;;;;37.50;17.73;;;4.40;99.90;;;;;;5052526;28;20041;-68
2024/02/07 10:27:37;;;;;;;35.42;17.92;;;4.40;99.90;;;;;;5055171;28;20399;-70
2024/02/07 10:30:04;;;;;;;43.78;19.15;;;4.40;99.90;;;;;;5053616;28;20041;-69
2024/02/07 10:32:30;;;;;;;35.13;17.92;;;4.50;99.90;;;;;;5052051;28;20542;-68
2024/02/07 10:34:55;;;;;;;34.15;17.70;;;4.50;99.90;;;;;;5052968;28;20056;-68
2024/02/07 10:37:21;;;;;;;34.20;17.50;;;4.40;99.90;;;;;;5061153;28;20103;-69
2024/02/07 10:39:48;;;;;;;49.67;17.70;;;4.50;99.90;;;;;;5059665;28;20033;-69
2024/02/07 10:42:14;;;;;;;34.22;16.70;;;4.50;99.90;;;;;;5044900;28;20378;-68
2024/02/07 10:44:40;;;;;;;33.63;16.15;;;4.40;99.90;;;;;;5054626;28;20034;-68
2024/02/07 10:47:08;;;;;;;35.20;14.93;;;4.50;99.90;;;;;;5047883;28;20029;-68
2024/02/07 10:49:34;;;;;;;23.58;12.73;;;4.60;99.90;;;;;;5041221;28;20494;-68
2024/02/07 10:52:01;;;;;;;30.15;13.02;;;4.70;99.90;;;;;;5047579;28;20036;-70
2024/02/07 10:54:27;;;;;;;29.98;13.18;;;4.80;99.90;;;;;;5053816;28;20024;-68
2024/02/07 10:56:56;;;;;;;21.85;11.40;;;5.00;99.90;;;;;;5051636;28;20021;-69
2024/02/07 10:59:22;;;;;;;19.05;10.45;;;4.90;99.90;;;;;;5050852;28;20032;-69
2024/02/07 11:01:49;;;;;;;25.83;11.00;;;4.90;99.90;;;;;;5051447;28;20044;-69
2024/02/07 11:04:15;;;;;;;22.25;10.27;;;4.90;99.90;;;;;;5049422;28;20048;-69
2024/02/07 11:06:41;;;;;;;24.52;10.70;;;4.90;99.90;;;;;;5048931;28;20075;-69
2024/02/07 11:09:09;;;;;;;22.23;10.10;;;4.90;99.90;;;;;;5046222;28;20040;-69
2024/02/07 11:11:34;;;;;;;21.65;10.15;;;4.90;99.90;;;;;;5051531;28;20028;-69
2024/02/07 11:14:01;;;;;;;23.38;10.32;;;4.90;99.90;;;;;;5052936;28;20066;-69
2024/02/07 11:16:27;;;;;;;23.95;9.88;;;4.90;99.90;;;;;;5052365;28;20053;-69
2024/02/07 11:18:53;;;;;;;22.45;9.63;;;5.00;99.90;;;;;;5053520;28;20453;-70
2024/02/07 11:21:23;;;;;;;19.77;10.15;;;5.10;99.90;;;;;;5053484;28;20036;-69
2024/02/07 11:23:50;;;;;;;20.23;9.80;;;5.20;99.90;;;;;;5054170;28;20391;-69
2024/02/07 11:26:17;;;;;;;22.60;10.05;;;5.20;99.90;;;;;;5054460;28;20471;-69
2024/02/07 11:28:43;;;;;;;20.05;9.43;;;5.30;99.90;;;;;;5054955;28;20039;-69
2024/02/07 11:31:09;;;;;;;21.85;9.55;;;5.30;99.90;;;;;;5056042;28;20107;-69
2024/02/07 11:33:37;;;;;;;31.42;12.65;;;5.40;99.90;;;;;;5055218;28;20544;-69
2024/02/07 11:36:19;;;;;;;27.17;12.40;;;5.60;99.90;;;;;;5053943;28;20082;-69
2024/02/07 11:38:56;;;;;;;24.90;10.05;;;5.50;99.90;;;;;;5052101;28;20390;-70
2024/02/07 11:41:22;;;;;;;21.65;9.07;;;5.60;99.90;;;;;;5052093;28;20020;-68
2024/02/07 11:43:50;;;;;;;16.73;8.45;;;5.70;99.90;;;;;;5053036;28;20033;-70
2024/02/07 11:46:17;;;;;;;14.18;7.60;;;5.70;99.90;;;;;;5052638;28;20056;-69
2024/02/07 11:48:42;;;;;;;19.80;8.85;;;5.70;99.90;;;;;;5057438;28;20081;-69
2024/02/07 11:51:09;;;;;;;14.90;7.50;;;5.90;99.90;;;;;;5053536;28;20486;-70
2024/02/07 11:53:40;;;;;;;20.48;7.45;;;5.80;99.90;;;;;;5054487;28;20025;-70
2024/02/07 11:56:11;;;;;;;17.55;7.70;;;5.80;99.90;;;;;;5052067;28;20526;-70
2024/02/07 11:58:37;;;;;;;30.48;8.57;;;5.70;99.90;;;;;;5052034;28;20471;-70
2024/02/07 12:01:06;;;;;;;21.02;7.55;;;5.70;99.90;;;;;;5054944;28;20029;-65
2024/02/07 12:03:31;;;;;;;20.35;7.88;;;5.60;99.90;;;;;;5052595;28;20037;-65
2024/02/07 12:05:57;;;;;;;21.52;7.80;;;5.70;99.90;;;;;;5051790;28;20048;-65
2024/02/07 12:08:23;;;;;;;22.33;11.55;;;5.50;99.90;;;;;;5051627;28;20037;-69
2024/02/07 12:10:50;;;;;;;19.42;7.50;;;5.50;99.90;;;;;;5054922;28;20032;-68
2024/02/07 12:13:16;;;;;;;19.80;7.65;;;5.50;99.90;;;;;;5052950;28;20490;-69
2024/02/07 12:15:42;;;;;;;16.85;7.43;;;5.50;99.90;;;;;;5051593;28;20033;-69
2024/02/07 12:18:08;;;;;;;20.73;7.13;;;5.60;99.90;;;;;;5053367;28;20099;-69
2024/02/07 12:20:33;;;;;;;25.35;7.65;;;5.60;99.90;;;;;;5049523;28;20052;-70
2024/02/07 12:23:01;;;;;;;22.85;7.57;;;5.70;99.90;;;;;;5051687;28;20498;-69
2024/02/07 12:25:27;;;;;;;20.00;8.52;;;5.70;99.90;;;;;;5052725;28;20040;-69
2024/02/07 12:27:53;;;;;;;23.92;7.53;;;5.70;99.90;;;;;;5052216;28;20239;-71
2024/02/07 12:30:19;;;;;;;16.95;7.22;;;5.80;99.90;;;;;;5051850;28;20064;-70
2024/02/07 12:32:44;;;;;;;25.67;8.95;;;5.90;99.90;;;;;;5052321;28;20413;-69
2024/02/07 12:35:11;;;;;;;18.30;5.82;;;5.90;99.90;;;;;;5046396;28;20111;-70
2024/02/07 12:37:38;;;;;;;17.52;5.60;;;5.90;99.90;;;;;;5051687;28;20024;-70
2024/02/07 12:40:10;;;;;;;19.48;6.65;;;5.90;99.90;;;;;;5053163;28;20552;-70
2024/02/07 12:42:36;;;;;;;17.63;6.35;;;6.00;99.90;;;;;;5058671;28;20364;-69
2024/02/07 12:45:02;;;;;;;13.55;5.50;;;6.10;99.90;;;;;;5053272;28;20076;-70
2024/02/07 12:47:28;;;;;;;18.33;5.93;;;6.20;99.90;;;;;;5052284;28;20482;-70
2024/02/07 12:49:53;;;;;;;15.45;5.95;;;6.20;99.90;;;;;;5052722;28;20029;-70
2024/02/07 12:52:20;;;;;;;20.55;6.20;;;6.40;99.90;;;;;;5056616;28;20048;-71
2024/02/07 12:54:46;;;;;;;13.93;5.22;;;6.50;99.90;;;;;;5060838;28;20532;-70
2024/02/07 12:57:21;;;;;;;15.05;5.72;;;6.40;99.90;;;;;;5056934;28;20041;-69
2024/02/07 12:59:47;;;;;;;16.05;6.10;;;6.50;99.90;;;;;;5059370;28;20513;-70
2024/02/07 13:02:13;;;;;;;20.17;5.10;;;6.60;99.90;;;;;;5053614;28;20108;-68
2024/02/07 13:04:38;;;;;;;15.82;5.43;;;6.60;99.90;;;;;;5059536;28;20467;-68
2024/02/07 13:07:08;;;;;;;18.17;5.22;;;6.60;99.90;;;;;;5059104;28;20074;-69
2024/02/07 13:09:34;;;;;;;14.30;5.50;;;6.60;99.90;;;;;;5055963;28;20028;-68
2024/02/07 13:12:00;;;;;;;16.65;4.65;;;6.60;99.90;;;;;;5052943;28;20036;-68
2024/02/07 13:14:25;;;;;;;18.58;5.13;;;6.50;99.90;;;;;;5050764;28;20037;-69
2024/02/07 13:16:51;;;;;;;17.23;4.45;;;6.50;99.90;;;;;;5052670;28;20041;-68
2024/02/07 13:19:18;;;;;;;18.20;4.65;;;6.50;99.90;;;;;;5055588;28;20021;-68
2024/02/07 13:21:43;;;;;;;21.00;6.57;;;6.40;99.90;;;;;;5053720;28;20066;-69
2024/02/07 13:24:15;;;;;;;20.05;5.28;;;6.40;99.90;;;;;;5053793;28;20484;-68
2024/02/07 13:26:41;;;;;;;16.95;5.60;;;6.40;99.90;;;;;;5052825;28;20032;-68
2024/02/07 13:29:08;;;;;;;19.25;5.50;;;6.50;99.90;;;;;;5050381;28;20032;-68
2024/02/07 13:31:35;;;;;;;15.50;5.28;;;6.60;99.90;;;;;;5051279;28;20041;-68
2024/02/07 13:34:01;;;;;;;25.40;5.55;;;6.70;99.90;;;;;;5054787;28;20082;-69
2024/02/07 13:36:26;;;;;;;18.85;5.13;;;6.70;99.90;;;;;;5062534;28;20430;-68
2024/02/07 13:38:52;;;;;;;24.38;5.28;;;6.60;94.50;;;;;;5053893;28;20371;-68
2024/02/07 13:41:19;;;;;;;23.08;4.93;;;6.50;95.60;;;;;;5056021;28;20368;-68
2024/02/07 13:43:46;;;;;;;25.88;5.55;;;6.50;96.40;;;;;;5055281;28;20039;-69
2024/02/07 13:46:12;;;;;;;15.13;5.15;;;6.60;99.90;;;;;;5055655;28;20032;-68
2024/02/07 13:48:38;;;;;;;19.05;5.55;;;6.60;99.90;;;;;;5056821;28;20082;-69
2024/02/07 13:51:06;;;;;;;21.08;5.35;;;6.50;91.90;;;;;;5055508;28;20024;-68